Time;durP1;ratioP1;P1;durP2;ratioP2;P2;SDS_P1;SDS_P2;PMS_P1;PMS_P2;Temp;Humidity;BMP_temperature;BMP_pressure;BME280_temperature;BME280_humidity;BME280_pressure;Samples;Min_cycle;Max_cycle;Signal;HPM_P1;HPM_P2
2024/01/30 00:01:26;;;;;;;14.02;12.38;;;5.90;99.90;;;;;;5089146;28;20048;-61
2024/01/30 00:03:52;;;;;;;14.48;12.75;;;5.90;99.90;;;;;;5089386;28;20047;-61
2024/01/30 00:06:21;;;;;;;13.73;11.85;;;5.80;99.90;;;;;;5090601;28;20094;-62
2024/01/30 00:08:48;;;;;;;16.02;13.20;;;5.90;99.90;;;;;;5090697;28;20057;-61
2024/01/30 00:11:15;;;;;;;15.48;12.70;;;5.80;99.90;;;;;;5090813;28;20432;-61
2024/01/30 00:13:41;;;;;;;14.30;11.88;;;5.80;99.90;;;;;;5088913;28;20052;-61
2024/01/30 00:16:07;;;;;;;15.20;12.05;;;5.80;99.90;;;;;;5090479;28;20158;-61
2024/01/30 00:18:33;;;;;;;16.83;13.63;;;5.80;99.90;;;;;;5087855;28;20040;-61
2024/01/30 00:20:58;;;;;;;16.42;12.95;;;5.70;99.90;;;;;;5070573;28;20033;-61
2024/01/30 00:23:24;;;;;;;15.98;12.65;;;5.70;99.90;;;;;;5074209;28;20045;-61
2024/01/30 00:25:50;;;;;;;16.40;13.57;;;5.70;99.90;;;;;;5074296;28;20075;-61
2024/01/30 00:28:16;;;;;;;17.45;13.00;;;5.70;99.90;;;;;;5073008;28;20123;-61
2024/01/30 00:30:41;;;;;;;18.23;13.90;;;5.70;99.90;;;;;;5072570;28;20163;-61
2024/01/30 00:33:08;;;;;;;16.40;13.10;;;5.70;99.90;;;;;;5073642;28;20048;-61
2024/01/30 00:35:33;;;;;;;18.55;13.85;;;5.70;99.90;;;;;;5072378;28;20044;-62
2024/01/30 00:37:59;;;;;;;16.80;13.95;;;5.70;99.90;;;;;;5072666;28;20073;-62
2024/01/30 00:40:24;;;;;;;17.25;13.98;;;5.70;99.90;;;;;;5089657;28;20475;-61
2024/01/30 00:42:50;;;;;;;18.95;14.13;;;5.70;99.90;;;;;;5082007;28;20194;-61
2024/01/30 00:45:16;;;;;;;16.55;13.10;;;5.80;99.90;;;;;;5073999;28;20530;-61
2024/01/30 00:47:43;;;;;;;15.57;13.15;;;5.70;99.90;;;;;;5073295;28;20076;-61
2024/01/30 00:50:09;;;;;;;17.17;12.88;;;5.70;99.90;;;;;;5073618;28;20040;-62
2024/01/30 00:52:35;;;;;;;16.42;14.18;;;5.70;99.90;;;;;;5072408;28;20066;-61
2024/01/30 00:55:01;;;;;;;17.42;13.25;;;5.70;99.90;;;;;;5072291;28;20047;-61
2024/01/30 00:57:27;;;;;;;17.73;13.98;;;5.70;99.90;;;;;;5073360;28;20090;-61
2024/01/30 00:59:53;;;;;;;15.77;13.55;;;5.70;99.90;;;;;;5084202;28;20036;-62
2024/01/30 01:02:18;;;;;;;15.77;13.48;;;5.70;99.90;;;;;;5085341;28;20044;-61
2024/01/30 01:04:44;;;;;;;16.88;13.63;;;5.60;99.90;;;;;;5081664;28;20032;-61
2024/01/30 01:07:10;;;;;;;16.80;13.35;;;5.60;99.90;;;;;;5080387;28;20070;-61
2024/01/30 01:09:36;;;;;;;16.20;14.05;;;5.60;99.90;;;;;;5073387;28;20048;-62
2024/01/30 01:12:03;;;;;;;16.52;12.85;;;5.60;99.90;;;;;;5055517;28;20506;-61
2024/01/30 01:14:29;;;;;;;16.55;13.10;;;5.60;99.90;;;;;;5071980;28;20045;-62
2024/01/30 01:16:54;;;;;;;17.48;13.30;;;5.50;99.90;;;;;;5073153;28;20036;-62
2024/01/30 01:19:20;;;;;;;15.90;14.20;;;5.50;99.90;;;;;;5087836;28;20032;-62
2024/01/30 01:21:46;;;;;;;14.45;12.90;;;5.50;99.90;;;;;;5091222;28;20088;-62
2024/01/30 01:24:11;;;;;;;15.68;13.27;;;5.50;99.90;;;;;;5071938;28;20041;-60
2024/01/30 01:26:37;;;;;;;16.02;12.88;;;5.50;99.90;;;;;;5072933;28;20036;-61
2024/01/30 01:29:09;;;;;;;17.67;13.27;;;5.50;99.90;;;;;;5085597;28;20047;-61
2024/01/30 01:31:39;;;;;;;18.88;14.02;;;5.50;99.90;;;;;;5091320;28;20044;-61
2024/01/30 01:34:06;;;;;;;16.95;13.73;;;5.50;99.90;;;;;;5083880;28;20055;-61
2024/01/30 01:36:31;;;;;;;18.45;14.50;;;5.50;99.90;;;;;;5091746;28;20122;-62
2024/01/30 01:38:57;;;;;;;17.80;14.52;;;5.50;99.90;;;;;;5092788;28;20138;-60
2024/01/30 01:41:23;;;;;;;15.63;13.52;;;5.60;99.90;;;;;;5092025;28;20486;-62
2024/01/30 01:43:48;;;;;;;16.08;13.45;;;5.70;99.90;;;;;;5091592;28;20044;-62
2024/01/30 01:46:15;;;;;;;19.92;13.88;;;5.70;99.90;;;;;;5092717;28;20040;-61
2024/01/30 01:48:42;;;;;;;16.48;13.77;;;5.70;99.90;;;;;;5074608;28;20090;-62
2024/01/30 01:51:09;;;;;;;16.33;13.73;;;5.70;99.90;;;;;;5076933;28;20044;-61
2024/01/30 01:53:35;;;;;;;14.98;12.93;;;5.80;99.90;;;;;;5091362;28;20105;-62
2024/01/30 01:56:00;;;;;;;16.77;12.85;;;5.80;99.90;;;;;;5054678;28;20045;-61
2024/01/30 01:58:28;;;;;;;15.48;13.88;;;5.80;99.90;;;;;;5072346;28;20033;-61
2024/01/30 02:00:56;;;;;;;16.13;12.73;;;5.80;99.90;;;;;;5071202;28;20076;-61
2024/01/30 02:03:21;;;;;;;15.45;13.30;;;5.80;99.90;;;;;;5071242;28;20075;-61
2024/01/30 02:05:47;;;;;;;18.38;13.27;;;5.90;99.90;;;;;;5072109;28;20036;-61
2024/01/30 02:08:13;;;;;;;16.88;13.10;;;5.90;99.90;;;;;;5076443;28;20036;-62
2024/01/30 02:10:38;;;;;;;15.07;12.23;;;6.00;99.90;;;;;;5074884;28;20079;-62
2024/01/30 02:13:04;;;;;;;14.85;12.48;;;6.00;99.90;;;;;;5070855;28;20082;-61
2024/01/30 02:15:30;;;;;;;14.68;11.85;;;6.00;99.90;;;;;;5085636;28;20130;-61
2024/01/30 02:17:56;;;;;;;15.90;12.73;;;6.00;99.90;;;;;;5073933;28;20128;-61
2024/01/30 02:20:24;;;;;;;15.63;12.27;;;6.00;99.90;;;;;;5070809;28;20044;-61
2024/01/30 02:22:54;;;;;;;18.27;12.65;;;6.00;99.90;;;;;;5080812;28;20047;-62
2024/01/30 02:25:19;;;;;;;15.27;12.52;;;6.10;99.90;;;;;;5092274;28;20075;-61
2024/01/30 02:27:45;;;;;;;12.93;11.52;;;6.10;99.90;;;;;;5092118;28;20432;-62
2024/01/30 02:30:11;;;;;;;14.98;12.57;;;6.10;99.90;;;;;;5090824;28;20093;-61
2024/01/30 02:32:37;;;;;;;14.57;11.93;;;6.10;99.90;;;;;;5090437;28;20032;-60
2024/01/30 02:35:03;;;;;;;19.17;13.15;;;6.00;99.90;;;;;;5091580;28;20574;-61
2024/01/30 02:37:28;;;;;;;16.52;12.55;;;6.10;99.90;;;;;;5092007;28;20407;-61
2024/01/30 02:39:54;;;;;;;17.80;13.30;;;6.10;99.90;;;;;;5091872;28;20129;-61
2024/01/30 02:42:20;;;;;;;13.10;11.25;;;6.10;99.90;;;;;;5091819;28;20048;-61
2024/01/30 02:44:45;;;;;;;17.23;12.30;;;6.10;99.90;;;;;;5074326;28;20049;-62
2024/01/30 02:47:11;;;;;;;13.90;11.88;;;6.10;99.90;;;;;;5071253;28;20048;-62
2024/01/30 02:49:37;;;;;;;14.38;11.02;;;6.10;99.90;;;;;;5070072;28;20455;-61
2024/01/30 02:52:03;;;;;;;15.50;12.23;;;6.10;99.90;;;;;;5070109;28;20123;-61
2024/01/30 02:54:30;;;;;;;12.07;10.68;;;6.20;99.90;;;;;;5071286;28;20045;-62
2024/01/30 02:56:56;;;;;;;14.75;11.35;;;6.20;99.90;;;;;;5069782;28;20115;-61
2024/01/30 02:59:21;;;;;;;12.75;11.23;;;6.10;99.90;;;;;;5071329;28;20128;-62
2024/01/30 03:01:47;;;;;;;14.55;11.65;;;6.10;99.90;;;;;;5071187;28;20079;-62
2024/01/30 03:04:13;;;;;;;15.82;12.02;;;6.00;99.90;;;;;;5069916;28;20406;-62
2024/01/30 03:06:44;;;;;;;13.77;10.63;;;6.00;99.90;;;;;;5071190;28;20371;-62
2024/01/30 03:09:09;;;;;;;13.50;11.00;;;5.90;99.90;;;;;;5079494;28;20044;-61
2024/01/30 03:11:35;;;;;;;16.13;10.50;;;5.80;99.90;;;;;;5070929;28;20128;-61
2024/01/30 03:14:01;;;;;;;13.13;10.88;;;5.80;99.90;;;;;;5069560;28;20044;-62
2024/01/30 03:16:26;;;;;;;15.13;11.90;;;5.80;99.90;;;;;;5074008;28;20429;-61
2024/01/30 03:18:52;;;;;;;13.95;11.95;;;5.80;99.90;;;;;;5091204;28;20036;-62
2024/01/30 03:21:18;;;;;;;13.82;11.63;;;5.80;99.90;;;;;;5089855;28;20090;-62
2024/01/30 03:23:43;;;;;;;14.60;11.32;;;5.90;99.90;;;;;;5089843;28;20043;-61
2024/01/30 03:26:10;;;;;;;15.40;12.15;;;5.80;99.90;;;;;;5089406;28;20035;-61
2024/01/30 03:28:36;;;;;;;18.52;12.27;;;5.80;99.90;;;;;;5091278;28;20119;-62
2024/01/30 03:31:02;;;;;;;15.88;12.25;;;5.80;99.90;;;;;;5090852;28;20550;-61
2024/01/30 03:33:28;;;;;;;15.57;12.32;;;5.90;99.90;;;;;;5077606;28;20135;-61
2024/01/30 03:35:53;;;;;;;13.18;11.77;;;5.90;99.90;;;;;;5085544;28;20380;-62
2024/01/30 03:38:19;;;;;;;14.85;11.55;;;6.00;99.90;;;;;;5089642;28;20130;-61
2024/01/30 03:40:45;;;;;;;15.25;11.85;;;6.00;99.90;;;;;;5090837;28;20070;-62
2024/01/30 03:43:10;;;;;;;15.02;12.23;;;6.10;99.90;;;;;;5089850;28;20060;-61
2024/01/30 03:45:36;;;;;;;15.25;11.52;;;6.10;99.90;;;;;;5070649;28;20036;-62
2024/01/30 03:48:01;;;;;;;14.63;11.70;;;6.20;99.90;;;;;;5069112;28;20064;-61
2024/01/30 03:50:28;;;;;;;14.30;12.07;;;6.20;99.90;;;;;;5089292;28;21050;-62
2024/01/30 03:52:53;;;;;;;13.60;11.35;;;6.20;99.90;;;;;;5091233;28;20032;-61
2024/01/30 03:55:19;;;;;;;14.60;11.85;;;6.20;99.90;;;;;;5071129;28;20101;-61
2024/01/30 03:57:44;;;;;;;14.73;11.48;;;6.30;99.90;;;;;;5073426;28;20043;-62
2024/01/30 04:00:11;;;;;;;14.95;11.18;;;6.30;99.90;;;;;;5074519;28;20029;-62
2024/01/30 04:02:36;;;;;;;18.48;11.57;;;6.30;99.90;;;;;;5073511;28;20127;-61
2024/01/30 04:05:02;;;;;;;15.80;11.70;;;6.30;99.90;;;;;;5074847;28;20119;-62
2024/01/30 04:07:28;;;;;;;13.75;11.98;;;6.30;99.90;;;;;;5073358;28;21342;-62
2024/01/30 04:09:54;;;;;;;13.95;10.80;;;6.40;99.90;;;;;;5073199;28;20044;-61
2024/01/30 04:12:20;;;;;;;16.42;11.60;;;6.40;99.90;;;;;;5073209;28;20044;-61
2024/01/30 04:14:46;;;;;;;12.45;10.70;;;6.40;99.90;;;;;;5073155;28;20452;-61
2024/01/30 04:17:11;;;;;;;14.32;11.48;;;6.50;99.90;;;;;;5081378;28;20506;-62
2024/01/30 04:19:38;;;;;;;14.38;11.52;;;6.50;99.90;;;;;;5082360;28;20040;-61
2024/01/30 04:22:04;;;;;;;15.63;11.23;;;6.60;99.90;;;;;;5081725;28;20082;-62
2024/01/30 04:24:29;;;;;;;14.13;11.00;;;6.50;99.90;;;;;;5093257;28;20044;-61
2024/01/30 04:26:55;;;;;;;15.35;10.95;;;6.60;99.90;;;;;;5088548;28;20056;-61
2024/01/30 04:29:22;;;;;;;13.65;11.73;;;6.60;99.90;;;;;;5083402;28;20032;-61
2024/01/30 04:31:48;;;;;;;14.93;10.38;;;6.70;99.90;;;;;;5088321;28;20047;-61
2024/01/30 04:34:13;;;;;;;14.82;10.98;;;6.70;99.90;;;;;;5073773;28;20512;-61
2024/01/30 04:36:42;;;;;;;14.05;11.15;;;6.70;99.90;;;;;;5073805;28;20036;-61
2024/01/30 04:39:08;;;;;;;13.40;11.30;;;6.70;99.90;;;;;;5080004;28;20039;-61
2024/01/30 04:41:34;;;;;;;14.27;11.38;;;6.60;99.90;;;;;;5092767;28;20111;-61
2024/01/30 04:43:59;;;;;;;13.68;11.05;;;6.70;99.90;;;;;;5085635;28;20036;-62
2024/01/30 04:46:25;;;;;;;13.88;11.63;;;6.70;99.90;;;;;;5092751;28;20051;-62
2024/01/30 04:48:50;;;;;;;15.18;10.55;;;6.70;99.90;;;;;;5092954;28;20483;-62
2024/01/30 04:51:16;;;;;;;12.55;11.23;;;6.70;99.90;;;;;;5092720;28;20126;-61
2024/01/30 04:53:42;;;;;;;13.77;11.30;;;6.70;99.90;;;;;;5092497;28;20395;-61
2024/01/30 04:56:07;;;;;;;14.50;11.45;;;6.70;99.90;;;;;;5092565;28;20040;-61
2024/01/30 04:58:33;;;;;;;14.02;10.95;;;6.80;99.90;;;;;;5082368;28;20133;-61
2024/01/30 05:00:58;;;;;;;12.77;11.38;;;6.70;99.90;;;;;;5085909;28;20093;-61
2024/01/30 05:03:24;;;;;;;12.70;10.95;;;6.80;99.90;;;;;;5075181;28;20094;-61
2024/01/30 05:05:50;;;;;;;13.88;10.55;;;6.70;99.90;;;;;;5073538;28;20036;-62
2024/01/30 05:08:16;;;;;;;12.60;10.85;;;6.80;99.90;;;;;;5054337;28;20135;-61
2024/01/30 05:10:41;;;;;;;16.55;11.20;;;6.70;99.90;;;;;;5074386;28;20127;-61
2024/01/30 05:13:07;;;;;;;12.85;10.73;;;6.80;99.90;;;;;;5093460;28;20036;-62
2024/01/30 05:15:32;;;;;;;14.68;10.82;;;6.80;99.90;;;;;;5083914;28;20091;-61
2024/01/30 05:17:58;;;;;;;13.60;10.98;;;6.80;99.90;;;;;;5071835;28;20072;-61
2024/01/30 05:20:24;;;;;;;14.13;11.23;;;6.80;99.90;;;;;;5072209;28;20475;-62
2024/01/30 05:22:49;;;;;;;14.55;10.68;;;6.80;99.90;;;;;;5071411;28;20044;-61
2024/01/30 05:25:15;;;;;;;14.02;10.85;;;6.80;99.90;;;;;;5072093;28;20036;-61
2024/01/30 05:27:40;;;;;;;15.73;11.00;;;6.80;99.90;;;;;;5073398;28;20052;-61
2024/01/30 05:30:07;;;;;;;14.40;10.77;;;6.80;99.90;;;;;;5093561;28;20034;-61
2024/01/30 05:32:33;;;;;;;15.65;11.25;;;6.80;99.90;;;;;;5083318;28;20094;-61
2024/01/30 05:34:58;;;;;;;15.73;11.32;;;6.80;99.90;;;;;;5087868;28;20076;-61
2024/01/30 05:37:24;;;;;;;15.13;10.93;;;6.90;99.90;;;;;;5071521;28;20135;-62
2024/01/30 05:39:50;;;;;;;11.45;10.27;;;6.90;99.90;;;;;;5083856;28;20111;-61
2024/01/30 05:42:16;;;;;;;13.35;11.10;;;6.90;99.90;;;;;;5086953;28;20487;-61
2024/01/30 05:44:42;;;;;;;14.15;11.32;;;6.90;99.90;;;;;;5072644;28;20133;-62
2024/01/30 05:47:08;;;;;;;15.27;10.90;;;6.80;99.90;;;;;;5072950;28;20159;-61
2024/01/30 05:49:34;;;;;;;12.63;10.75;;;6.80;99.90;;;;;;5072427;28;20535;-61
2024/01/30 05:52:02;;;;;;;12.02;10.10;;;6.80;99.90;;;;;;5071557;28;20408;-61
2024/01/30 05:54:27;;;;;;;12.70;10.75;;;6.90;99.90;;;;;;5054065;28;20049;-61
2024/01/30 05:56:53;;;;;;;16.08;11.02;;;6.80;99.90;;;;;;5071129;28;20479;-61
2024/01/30 05:59:19;;;;;;;14.30;11.20;;;6.90;99.90;;;;;;5072634;28;20086;-61
2024/01/30 06:01:48;;;;;;;14.98;11.10;;;6.80;99.90;;;;;;5072422;28;20080;-61
2024/01/30 06:04:14;;;;;;;16.02;11.82;;;6.80;99.90;;;;;;5072365;28;20047;-61
2024/01/30 06:06:40;;;;;;;14.13;10.60;;;6.80;99.90;;;;;;5072649;28;20040;-61
2024/01/30 06:09:08;;;;;;;13.15;10.82;;;6.80;99.90;;;;;;5092796;28;20395;-61
2024/01/30 06:11:35;;;;;;;15.25;11.48;;;6.80;99.90;;;;;;5090951;28;20052;-62
2024/01/30 06:14:00;;;;;;;14.02;10.68;;;6.80;99.90;;;;;;5092039;28;20047;-61
2024/01/30 06:16:29;;;;;;;11.75;10.05;;;6.80;99.90;;;;;;5075908;28;20044;-61
2024/01/30 06:18:55;;;;;;;11.27;9.95;;;6.90;99.90;;;;;;5069793;28;20098;-61
2024/01/30 06:21:21;;;;;;;13.50;10.20;;;6.80;99.90;;;;;;5070648;28;20040;-62
2024/01/30 06:23:47;;;;;;;13.18;10.32;;;6.90;99.90;;;;;;5071897;28;20060;-61
2024/01/30 06:26:12;;;;;;;13.45;11.70;;;6.80;99.90;;;;;;5070822;28;20997;-61
2024/01/30 06:28:38;;;;;;;11.52;10.07;;;6.90;99.90;;;;;;5071898;28;20040;-61
2024/01/30 06:31:04;;;;;;;15.02;11.77;;;6.90;99.90;;;;;;5071656;28;20102;-62
2024/01/30 06:33:29;;;;;;;12.05;10.48;;;6.90;99.90;;;;;;5071343;28;20140;-62
2024/01/30 06:35:55;;;;;;;12.57;10.82;;;6.90;99.90;;;;;;5069769;28;20063;-61
2024/01/30 06:38:21;;;;;;;12.38;10.70;;;6.90;99.90;;;;;;5071847;28;20051;-62
2024/01/30 06:40:46;;;;;;;13.40;9.90;;;6.90;99.90;;;;;;5053531;28;20447;-62
2024/01/30 06:43:12;;;;;;;14.38;10.57;;;7.00;99.90;;;;;;5082197;28;20044;-62
2024/01/30 06:45:37;;;;;;;12.98;10.18;;;7.00;99.90;;;;;;5090831;28;20043;-62
2024/01/30 06:48:03;;;;;;;13.93;10.20;;;7.00;99.90;;;;;;5091429;28;20041;-62
2024/01/30 06:50:29;;;;;;;11.73;10.15;;;7.00;99.90;;;;;;5090909;28;20043;-61
2024/01/30 06:52:55;;;;;;;13.80;11.15;;;7.00;99.90;;;;;;5090217;28;20059;-61
2024/01/30 06:55:20;;;;;;;13.40;10.38;;;7.00;99.90;;;;;;5091282;28;20048;-61
2024/01/30 06:57:46;;;;;;;14.88;10.50;;;7.00;99.90;;;;;;5091570;28;20368;-61
2024/01/30 07:00:13;;;;;;;13.80;10.65;;;7.10;99.90;;;;;;5091499;28;20032;-61
2024/01/30 07:02:39;;;;;;;14.85;10.77;;;7.10;99.90;;;;;;5091441;28;20115;-61
2024/01/30 07:05:04;;;;;;;14.40;11.00;;;7.10;99.90;;;;;;5091029;28;20123;-61
2024/01/30 07:07:30;;;;;;;14.90;11.23;;;7.10;99.90;;;;;;5090230;28;20374;-61
2024/01/30 07:09:56;;;;;;;14.48;10.45;;;7.10;99.90;;;;;;5074056;28;20059;-61
2024/01/30 07:12:25;;;;;;;11.65;10.20;;;7.10;99.90;;;;;;5069716;28;21142;-62
2024/01/30 07:14:51;;;;;;;13.68;10.82;;;7.10;99.90;;;;;;5071221;28;20036;-61
2024/01/30 07:17:17;;;;;;;12.82;10.93;;;7.10;99.90;;;;;;5070701;28;20040;-62
2024/01/30 07:19:43;;;;;;;13.82;10.77;;;7.10;99.90;;;;;;5070985;28;20119;-62
2024/01/30 07:22:08;;;;;;;15.38;10.50;;;7.10;99.90;;;;;;5087118;28;20048;-61
2024/01/30 07:24:34;;;;;;;15.57;10.85;;;7.10;99.90;;;;;;5091442;28;20501;-61
2024/01/30 07:27:00;;;;;;;14.05;11.05;;;7.10;99.90;;;;;;5090952;28;20043;-62
2024/01/30 07:29:26;;;;;;;12.95;9.88;;;7.20;99.90;;;;;;5086679;28;20089;-61
2024/01/30 07:31:51;;;;;;;15.50;10.05;;;7.20;99.90;;;;;;5070399;28;20055;-61
2024/01/30 07:34:17;;;;;;;12.50;10.43;;;7.20;99.90;;;;;;5080210;28;20048;-62
2024/01/30 07:36:42;;;;;;;11.63;9.80;;;7.20;99.90;;;;;;5089891;28;20388;-61
2024/01/30 07:39:09;;;;;;;14.27;10.05;;;7.20;99.90;;;;;;5089903;28;20050;-61
2024/01/30 07:41:35;;;;;;;11.88;9.55;;;7.20;99.90;;;;;;5062876;28;20047;-61
2024/01/30 07:44:01;;;;;;;13.02;9.88;;;7.20;99.90;;;;;;5052708;28;20407;-61
2024/01/30 07:46:26;;;;;;;11.32;9.98;;;7.20;99.90;;;;;;5089510;28;20487;-61
2024/01/30 07:48:52;;;;;;;13.40;9.98;;;7.20;99.90;;;;;;5089198;28;20044;-61
2024/01/30 07:51:18;;;;;;;12.13;9.90;;;7.20;99.90;;;;;;5081267;28;20043;-61
2024/01/30 07:53:44;;;;;;;11.75;9.38;;;7.20;99.90;;;;;;5074213;28;20127;-61
2024/01/30 07:56:10;;;;;;;14.00;10.50;;;7.30;99.90;;;;;;5090829;28;20497;-62
2024/01/30 07:58:36;;;;;;;15.55;10.18;;;7.30;99.90;;;;;;5079134;28;20028;-61
2024/01/30 08:01:02;;;;;;;14.35;10.18;;;7.30;99.90;;;;;;5070592;28;20067;-61
2024/01/30 08:03:28;;;;;;;11.77;9.13;;;7.30;99.90;;;;;;5069221;28;20133;-61
2024/01/30 08:05:54;;;;;;;13.77;9.95;;;7.30;99.90;;;;;;5070503;28;20040;-61
2024/01/30 08:08:19;;;;;;;11.55;9.73;;;7.40;99.90;;;;;;5070435;28;20123;-61
2024/01/30 08:10:45;;;;;;;14.57;9.98;;;7.40;99.90;;;;;;5082012;28;20035;-61
2024/01/30 08:13:10;;;;;;;11.55;9.20;;;7.40;99.90;;;;;;5090512;28;20028;-61
2024/01/30 08:15:36;;;;;;;12.77;9.10;;;7.50;99.90;;;;;;5089036;28;20121;-62
2024/01/30 08:18:02;;;;;;;14.38;9.27;;;7.50;99.90;;;;;;5090539;28;20364;-61
2024/01/30 08:20:27;;;;;;;11.20;8.80;;;7.50;99.90;;;;;;5090718;28;20098;-62
2024/01/30 08:22:53;;;;;;;11.35;9.02;;;7.50;99.90;;;;;;5090682;28;20067;-61
2024/01/30 08:25:19;;;;;;;9.82;8.60;;;7.60;99.90;;;;;;5090646;28;20039;-62
2024/01/30 08:27:44;;;;;;;11.82;8.85;;;7.60;99.90;;;;;;5089341;28;20124;-61
2024/01/30 08:30:10;;;;;;;11.55;9.35;;;7.60;99.90;;;;;;5089247;28;20476;-62
2024/01/30 08:32:36;;;;;;;13.13;9.07;;;7.70;99.90;;;;;;5078394;28;20067;-61
2024/01/30 08:35:05;;;;;;;11.90;8.80;;;7.70;99.90;;;;;;5069902;28;20056;-61
2024/01/30 08:37:30;;;;;;;11.52;8.68;;;7.70;99.90;;;;;;5070146;28;20120;-62
2024/01/30 08:39:57;;;;;;;13.77;8.68;;;7.80;99.90;;;;;;5075039;28;20083;-61
2024/01/30 08:42:23;;;;;;;10.95;8.85;;;7.80;99.90;;;;;;5091392;28;20083;-61
2024/01/30 08:44:51;;;;;;;9.80;8.77;;;7.90;99.90;;;;;;5075973;28;20083;-61
2024/01/30 08:47:17;;;;;;;10.65;8.77;;;7.90;99.90;;;;;;5078413;28;20036;-61
2024/01/30 08:49:44;;;;;;;11.00;8.70;;;8.00;99.90;;;;;;5073687;28;20514;-61
2024/01/30 08:52:10;;;;;;;11.23;9.20;;;8.00;99.90;;;;;;5072506;28;20048;-62
2024/01/30 08:54:36;;;;;;;10.95;8.80;;;8.00;99.90;;;;;;5090151;28;20036;-61
2024/01/30 08:57:01;;;;;;;11.13;8.88;;;8.10;99.90;;;;;;5077092;28;20038;-62
2024/01/30 08:59:27;;;;;;;9.95;8.93;;;8.10;99.90;;;;;;5093868;28;20167;-61
2024/01/30 09:01:54;;;;;;;11.57;8.88;;;8.20;99.90;;;;;;5088915;28;20068;-61
2024/01/30 09:04:21;;;;;;;10.40;8.75;;;8.20;99.90;;;;;;5072400;28;20123;-61
2024/01/30 09:06:47;;;;;;;12.07;8.45;;;8.30;99.90;;;;;;5075897;28;20398;-61
2024/01/30 09:09:14;;;;;;;12.73;8.63;;;8.30;99.90;;;;;;5092338;28;20044;-62
2024/01/30 09:11:40;;;;;;;11.70;9.05;;;8.40;99.90;;;;;;5074758;28;20456;-60
2024/01/30 09:14:06;;;;;;;11.38;8.40;;;8.40;99.90;;;;;;5087251;28;20044;-62
2024/01/30 09:16:32;;;;;;;12.43;8.57;;;8.50;99.90;;;;;;5071673;28;20483;-61
2024/01/30 09:18:58;;;;;;;10.35;8.75;;;8.50;99.90;;;;;;5073424;28;20032;-62
2024/01/30 09:21:23;;;;;;;9.07;8.15;;;8.60;99.90;;;;;;5073271;28;20502;-61
2024/01/30 09:23:49;;;;;;;11.80;8.73;;;8.70;99.90;;;;;;5089978;28;20075;-61
2024/01/30 09:26:15;;;;;;;12.52;8.52;;;8.70;99.90;;;;;;5072091;28;20044;-61
2024/01/30 09:28:42;;;;;;;16.17;9.43;;;8.80;99.90;;;;;;5072769;28;20043;-62
2024/01/30 09:31:11;;;;;;;13.23;8.55;;;8.90;99.90;;;;;;5073002;28;20036;-61
2024/01/30 09:33:37;;;;;;;10.02;8.20;;;8.90;99.90;;;;;;5054982;28;20491;-62
2024/01/30 09:36:03;;;;;;;11.27;8.27;;;9.00;99.90;;;;;;5071465;28;20056;-62
2024/01/30 09:38:28;;;;;;;11.13;8.10;;;9.00;99.90;;;;;;5072792;28;20040;-62
2024/01/30 09:40:56;;;;;;;11.73;8.25;;;9.10;99.90;;;;;;5071544;28;20200;-61
2024/01/30 09:43:23;;;;;;;13.18;8.25;;;9.10;99.90;;;;;;5077938;28;20051;-62
2024/01/30 09:45:50;;;;;;;10.80;7.82;;;9.20;99.90;;;;;;5082806;28;20415;-61
2024/01/30 09:48:16;;;;;;;16.15;8.38;;;9.30;99.90;;;;;;5071897;28;20036;-61
2024/01/30 09:50:42;;;;;;;12.15;8.40;;;9.30;99.90;;;;;;5089643;28;20044;-61
2024/01/30 09:53:08;;;;;;;13.30;8.60;;;9.40;99.90;;;;;;5091918;28;20120;-61
2024/01/30 09:55:35;;;;;;;13.73;8.30;;;9.40;99.90;;;;;;5091649;28;20509;-60
2024/01/30 09:58:01;;;;;;;9.68;7.70;;;9.40;99.90;;;;;;5092336;28;20036;-61
2024/01/30 10:00:27;;;;;;;9.60;8.20;;;9.40;99.90;;;;;;5092867;28;20111;-61
2024/01/30 10:02:53;;;;;;;13.52;8.13;;;9.50;99.90;;;;;;5092661;28;20078;-62
2024/01/30 10:05:20;;;;;;;12.75;8.50;;;9.50;99.90;;;;;;5092425;28;20358;-62
2024/01/30 10:07:56;;;;;;;14.05;8.57;;;9.60;99.90;;;;;;5092280;28;20046;-62
2024/01/30 10:10:25;;;;;;;14.90;8.35;;;9.60;99.90;;;;;;5091276;28;20062;-61
2024/01/30 10:12:51;;;;;;;12.48;8.65;;;9.70;99.90;;;;;;5073282;28;20123;-61
2024/01/30 10:15:18;;;;;;;11.80;8.70;;;9.70;99.90;;;;;;5070796;28;20559;-61
2024/01/30 10:17:46;;;;;;;13.77;8.43;;;9.80;99.90;;;;;;5078900;28;20047;-62
2024/01/30 10:20:12;;;;;;;12.50;7.95;;;9.80;99.90;;;;;;5062625;28;20128;-62
2024/01/30 10:22:39;;;;;;;13.20;8.18;;;9.90;99.90;;;;;;5070324;28;20400;-61
2024/01/30 10:25:05;;;;;;;14.68;8.60;;;10.00;99.90;;;;;;5071698;28;20047;-61
2024/01/30 10:27:31;;;;;;;11.35;8.27;;;10.00;99.90;;;;;;5077838;28;20040;-61
2024/01/30 10:29:57;;;;;;;13.75;9.02;;;10.10;99.90;;;;;;5091176;28;20082;-62
2024/01/30 10:32:23;;;;;;;17.50;9.38;;;10.10;99.90;;;;;;5072149;28;20040;-62
2024/01/30 10:34:49;;;;;;;14.10;9.48;;;10.10;99.90;;;;;;5078423;28;20123;-61
2024/01/30 10:37:16;;;;;;;10.98;8.65;;;10.10;99.90;;;;;;5091756;28;20044;-62
2024/01/30 10:39:43;;;;;;;12.82;8.75;;;10.10;99.90;;;;;;5058524;28;20127;-61
2024/01/30 10:42:14;;;;;;;16.25;8.73;;;10.10;99.90;;;;;;5082136;28;20044;-61
2024/01/30 10:45:18;;;;;;;13.60;9.57;;;10.10;99.90;;;;;;5090108;28;20048;-61
2024/01/30 10:47:49;;;;;;;15.82;9.90;;;10.10;99.90;;;;;;4997540;28;20092;-62
2024/01/30 10:50:15;;;;;;;12.68;9.10;;;10.10;99.90;;;;;;5009453;28;20037;-61
2024/01/30 10:52:43;;;;;;;13.07;9.57;;;10.10;99.90;;;;;;4993139;28;20664;-61
2024/01/30 10:55:09;;;;;;;15.30;9.52;;;10.10;99.90;;;;;;5009198;28;20046;-61
2024/01/30 10:57:36;;;;;;;14.15;9.43;;;10.20;99.90;;;;;;5009427;28;20591;-61
2024/01/30 11:00:10;;;;;;;13.85;9.38;;;10.10;99.90;;;;;;4993006;28;20038;-61
2024/01/30 11:02:41;;;;;;;14.98;10.02;;;10.20;99.90;;;;;;5009358;28;20049;-61
2024/01/30 11:05:06;;;;;;;17.98;10.15;;;10.20;99.90;;;;;;4992540;28;20057;-61
2024/01/30 11:07:33;;;;;;;19.48;10.35;;;10.30;99.90;;;;;;4976304;28;20472;-62
2024/01/30 11:10:00;;;;;;;14.93;10.45;;;10.30;99.90;;;;;;5009336;28;20104;-61
2024/01/30 11:12:26;;;;;;;14.98;10.75;;;10.40;99.90;;;;;;5004681;28;20124;-61
2024/01/30 11:15:23;;;;;;;22.13;10.90;;;10.40;99.90;;;;;;5012418;28;20072;-62
2024/01/30 11:17:49;;;;;;;16.23;10.85;;;10.40;99.90;;;;;;4954197;28;20061;-61
2024/01/30 11:20:24;;;;;;;16.30;10.38;;;10.40;99.90;;;;;;4969752;28;20034;-61
2024/01/30 11:22:56;;;;;;;18.02;9.68;;;10.50;99.90;;;;;;4953788;28;20058;-61
2024/01/30 11:25:22;;;;;;;15.82;9.95;;;10.40;99.90;;;;;;5048402;28;20408;-61
2024/01/30 11:27:51;;;;;;;14.43;9.63;;;10.50;99.90;;;;;;5031626;28;20049;-62
2024/01/30 11:30:37;;;;;;;15.10;10.13;;;10.50;99.90;;;;;;5048300;28;20037;-62
2024/01/30 11:33:04;;;;;;;14.38;10.15;;;10.50;99.90;;;;;;5031857;28;20056;-62
2024/01/30 11:35:34;;;;;;;17.90;9.73;;;10.50;99.90;;;;;;5031712;28;20415;-62
2024/01/30 11:38:00;;;;;;;15.45;9.52;;;10.50;99.90;;;;;;5015529;28;20055;-61
2024/01/30 11:40:30;;;;;;;15.23;10.35;;;10.60;99.90;;;;;;5031486;28;20060;-62
2024/01/30 11:42:58;;;;;;;16.65;9.23;;;10.60;99.90;;;;;;5016735;28;20042;-62
2024/01/30 11:45:24;;;;;;;12.25;9.35;;;10.70;99.90;;;;;;5014288;28;20137;-61
2024/01/30 11:47:49;;;;;;;12.73;9.35;;;10.80;99.90;;;;;;5048324;28;20037;-62
2024/01/30 11:50:16;;;;;;;11.05;8.60;;;10.90;99.90;;;;;;5030578;28;20036;-62
2024/01/30 11:52:42;;;;;;;12.23;8.43;;;11.00;99.90;;;;;;5016436;28;20151;-62
2024/01/30 11:55:10;;;;;;;10.93;7.53;;;11.10;99.90;;;;;;5086633;28;20119;-62
2024/01/30 11:57:36;;;;;;;8.85;7.53;;;11.10;99.90;;;;;;5065021;28;20411;-62
2024/01/30 12:00:08;;;;;;;14.50;9.52;;;11.10;99.90;;;;;;5091070;28;20028;-62
2024/01/30 12:02:34;;;;;;;18.37;9.23;;;11.00;99.90;;;;;;5060570;28;20045;-61
2024/01/30 12:05:06;;;;;;;14.45;8.05;;;10.70;99.90;;;;;;5069728;28;20048;-62
2024/01/30 12:07:32;;;;;;;;;;;10.40;99.90;;;;;;5069707;28;20499;-62
2024/01/30 12:09:58;;;;;;;21.95;8.10;;;10.30;99.90;;;;;;5077056;28;19927;-62
2024/01/30 12:12:27;;;;;;;14.88;7.13;;;10.10;99.90;;;;;;5088876;28;20475;-63
2024/01/30 12:14:53;;;;;;;15.52;7.55;;;10.00;99.90;;;;;;5069085;28;20089;-62
2024/01/30 12:17:28;;;;;;;15.77;8.20;;;9.90;99.90;;;;;;5088682;28;20157;-62
2024/01/30 12:20:26;;;;;;;14.85;6.78;;;9.90;99.90;;;;;;5076631;28;20036;-63
2024/01/30 12:22:53;;;;;;;13.80;6.18;;;10.00;99.90;;;;;;5015713;28;20078;-62
2024/01/30 12:25:20;;;;;;;12.38;5.45;;;10.10;99.90;;;;;;5015171;28;20092;-61
2024/01/30 12:27:50;;;;;;;10.15;4.70;;;10.00;99.90;;;;;;5003427;28;20081;-62
2024/01/30 12:30:16;;;;;;;7.53;4.18;;;10.00;99.90;;;;;;4995626;28;20104;-62
2024/01/30 12:32:46;;;;;;;9.43;4.07;;;10.00;99.90;;;;;;5011886;28;20132;-62
2024/01/30 12:35:15;;;;;;;9.45;4.32;;;9.90;99.90;;;;;;5019171;28;20135;-62
2024/01/30 12:37:42;;;;;;;7.07;3.55;;;9.80;99.90;;;;;;5003817;28;20233;-62